sensor_id;sensor_type;location;lat;lon;timestamp;pressure;altitude;pressure_sealevel;temperature;humidity
76046;BME280;64741;41.730;44.788;2023-12-20T00:02:08;1003.2;;;21.5;41.1
76046;BME280;64741;41.730;44.788;2023-12-20T00:07:02;1003.1;;;21.5;41.1
76046;BME280;64741;41.730;44.788;2023-12-20T00:12:12;1003;;;21.5;40.9
76046;BME280;64741;41.730;44.788;2023-12-20T00:17:02;1003;;;21.5;40.9
76046;BME280;64741;41.730;44.788;2023-12-20T00:22:12;1002.9;;;21.5;40.9
76046;BME280;64741;41.730;44.788;2023-12-20T00:27:08;1002.9;;;21.5;40.9
76046;BME280;64741;41.730;44.788;2023-12-20T00:32:00;1002.9;;;21.5;40.8
76046;BME280;64741;41.730;44.788;2023-12-20T00:37:12;1002.8;;;21.5;40.8
76046;BME280;64741;41.730;44.788;2023-12-20T00:41:48;1002.8;;;21.5;41
76046;BME280;64741;41.730;44.788;2023-12-20T00:46:58;1002.8;;;21.5;40.7
76046;BME280;64741;41.730;44.788;2023-12-20T00:52:06;1002.8;;;21.5;40.7
76046;BME280;64741;41.730;44.788;2023-12-20T00:57:00;1002.8;;;21.5;40.7
76046;BME280;64741;41.730;44.788;2023-12-20T01:02:12;1002.8;;;21.4;41.1
76046;BME280;64741;41.730;44.788;2023-12-20T01:07:02;1002.8;;;21.4;41.2
76046;BME280;64741;41.730;44.788;2023-12-20T01:12:12;1002.7;;;21.4;41.1
76046;BME280;64741;41.730;44.788;2023-12-20T01:17:08;1002.6;;;21.4;41
76046;BME280;64741;41.730;44.788;2023-12-20T01:22:02;1002.6;;;21.4;41.1
76046;BME280;64741;41.730;44.788;2023-12-20T01:27:12;1002.6;;;21.4;40.7
76046;BME280;64741;41.730;44.788;2023-12-20T01:31:30;1002.6;;;21.4;40.5
76046;BME280;64741;41.730;44.788;2023-12-20T01:37:12;1002.6;;;21.4;40.4
76046;BME280;64741;41.730;44.788;2023-12-20T01:42:06;1002.7;;;21.4;41.4
76046;BME280;64741;41.730;44.788;2023-12-20T01:47:02;1002.7;;;21.4;41.2
76046;BME280;64741;41.730;44.788;2023-12-20T01:52:00;1002.7;;;21.4;40.8
76046;BME280;64741;41.730;44.788;2023-12-20T01:57:01;1002.6;;;21.4;40.6
76046;BME280;64741;41.730;44.788;2023-12-20T02:02:12;1002.6;;;21.4;40.4
76046;BME280;64741;41.730;44.788;2023-12-20T02:07:08;1002.6;;;21.3;40.4
76046;BME280;64741;41.730;44.788;2023-12-20T02:12:03;1002.6;;;21.3;40.4
76046;BME280;64741;41.730;44.788;2023-12-20T02:17:12;1002.7;;;21.3;40.5
76046;BME280;64741;41.730;44.788;2023-12-20T02:22:06;1002.7;;;21.3;40.5
76046;BME280;64741;41.730;44.788;2023-12-20T02:27:12;1002.7;;;21.3;40.4
76046;BME280;64741;41.730;44.788;2023-12-20T02:32:08;1002.7;;;21.3;40.5
76046;BME280;64741;41.730;44.788;2023-12-20T02:36:52;1002.7;;;21.3;40.5
76046;BME280;64741;41.730;44.788;2023-12-20T02:42:03;1002.7;;;21.3;40.2
76046;BME280;64741;41.730;44.788;2023-12-20T02:47:12;1002.7;;;21.3;40.1
76046;BME280;64741;41.730;44.788;2023-12-20T02:52:08;1002.8;;;21.3;40.1
76046;BME280;64741;41.730;44.788;2023-12-20T02:57:12;1002.8;;;21.3;40.1
76046;BME280;64741;41.730;44.788;2023-12-20T03:02:12;1002.8;;;21.3;40.1
76046;BME280;64741;41.730;44.788;2023-12-20T03:07:03;1002.8;;;21.3;40
76046;BME280;64741;41.730;44.788;2023-12-20T03:12:12;1002.8;;;21.3;40
76046;BME280;64741;41.730;44.788;2023-12-20T03:17:08;1002.8;;;21.2;40
76046;BME280;64741;41.730;44.788;2023-12-20T03:22:03;1002.9;;;21.2;39.9
76046;BME280;64741;41.730;44.788;2023-12-20T03:27:12;1002.9;;;21.2;40
76046;BME280;64741;41.730;44.788;2023-12-20T03:32:03;1002.9;;;21.2;40.3
76046;BME280;64741;41.730;44.788;2023-12-20T03:37:13;1002.8;;;21.2;40.4
76046;BME280;64741;41.730;44.788;2023-12-20T03:42:08;1002.8;;;21.2;40.4
76046;BME280;64741;41.730;44.788;2023-12-20T03:47:13;1002.9;;;21.2;40.6
76046;BME280;64741;41.730;44.788;2023-12-20T03:51:24;1002.9;;;21.2;40.3
76046;BME280;64741;41.730;44.788;2023-12-20T03:57:03;1002.8;;;21.2;40.4
76046;BME280;64741;41.730;44.788;2023-12-20T04:02:05;1002.9;;;21.2;40.2
76046;BME280;64741;41.730;44.788;2023-12-20T04:07:09;1002.9;;;21.2;40.1
76046;BME280;64741;41.730;44.788;2023-12-20T04:12:11;1003;;;21.2;40
76046;BME280;64741;41.730;44.788;2023-12-20T04:17:13;1002.9;;;21.2;40.1
76046;BME280;64741;41.730;44.788;2023-12-20T04:22:03;1002.9;;;21.2;40.1
76046;BME280;64741;41.730;44.788;2023-12-20T04:27:13;1002.8;;;21.1;40.1
76046;BME280;64741;41.730;44.788;2023-12-20T04:32:09;1002.8;;;21.1;40.3
76046;BME280;64741;41.730;44.788;2023-12-20T04:37:13;1002.8;;;21.1;40.6
76046;BME280;64741;41.730;44.788;2023-12-20T04:42:13;1002.8;;;21.1;40.2
76046;BME280;64741;41.730;44.788;2023-12-20T04:47:03;1002.9;;;21.1;40.2
76046;BME280;64741;41.730;44.788;2023-12-20T04:51:51;1002.9;;;21.1;40.4
76046;BME280;64741;41.730;44.788;2023-12-20T04:57:09;1003;;;21.1;40.3
76046;BME280;64741;41.730;44.788;2023-12-20T05:02:13;1003.1;;;21.1;40.2
76046;BME280;64741;41.730;44.788;2023-12-20T05:07:11;1003.1;;;21.1;40.3
76046;BME280;64741;41.730;44.788;2023-12-20T05:12:03;1003.2;;;21.1;40.2
76046;BME280;64741;41.730;44.788;2023-12-20T05:17:13;1003.2;;;21.1;40.2
76046;BME280;64741;41.730;44.788;2023-12-20T05:21:59;1003.3;;;21.1;40.3
76046;BME280;64741;41.730;44.788;2023-12-20T05:27:13;1003.3;;;21;40.8
76046;BME280;64741;41.730;44.788;2023-12-20T05:32:13;1003.4;;;21;40.7
76046;BME280;64741;41.730;44.788;2023-12-20T05:37:03;1003.4;;;21;40.1
76046;BME280;64741;41.730;44.788;2023-12-20T05:42:13;1003.4;;;21;40.1
76046;BME280;64741;41.730;44.788;2023-12-20T05:46:33;1003.4;;;21;40.1
76046;BME280;64741;41.730;44.788;2023-12-20T05:52:11;1003.4;;;21;40.1
76046;BME280;64741;41.730;44.788;2023-12-20T05:57:13;1003.3;;;21.1;40
76046;BME280;64741;41.730;44.788;2023-12-20T06:01:45;1003.3;;;21.1;40
76046;BME280;64741;41.730;44.788;2023-12-20T06:07:13;1003.3;;;21.1;40.1
76046;BME280;64741;41.730;44.788;2023-12-20T06:11:41;1003.4;;;21.1;40
76046;BME280;64741;41.730;44.788;2023-12-20T06:17:13;1003.3;;;21.1;40.1
76046;BME280;64741;41.730;44.788;2023-12-20T06:22:05;1003.3;;;21.1;40.1
76046;BME280;64741;41.730;44.788;2023-12-20T06:27:03;1003.3;;;21.1;40.2
76046;BME280;64741;41.730;44.788;2023-12-20T06:32:13;1003.3;;;21.1;40.2
76046;BME280;64741;41.730;44.788;2023-12-20T06:37:09;1003.3;;;21.1;40.5
76046;BME280;64741;41.730;44.788;2023-12-20T06:42:03;1003.3;;;21.1;41.1
76046;BME280;64741;41.730;44.788;2023-12-20T06:47:13;1003.3;;;21.1;41.6
76046;BME280;64741;41.730;44.788;2023-12-20T06:51:55;1003.3;;;21.1;41.9
76046;BME280;64741;41.730;44.788;2023-12-20T06:57:13;1003.3;;;21.2;42.1
76046;BME280;64741;41.730;44.788;2023-12-20T07:02:07;1003.3;;;21.2;42.1
76046;BME280;64741;41.730;44.788;2023-12-20T07:07:05;1003.2;;;21.3;42.4
76046;BME280;64741;41.730;44.788;2023-12-20T07:12:15;1003.2;;;21.3;42.4
76046;BME280;64741;41.730;44.788;2023-12-20T07:16:55;1003.2;;;21.3;42.3
76046;BME280;64741;41.730;44.788;2023-12-20T07:22:15;1003.1;;;21.3;42.4
76046;BME280;64741;41.730;44.788;2023-12-20T07:27:09;1003;;;21.4;43.1
76046;BME280;64741;41.730;44.788;2023-12-20T07:31:55;1002.9;;;21.5;44.9
76046;BME280;64741;41.730;44.788;2023-12-20T07:37:13;1002.8;;;21.6;47.6
76046;BME280;64741;41.730;44.788;2023-12-20T07:42:03;1002.7;;;21.7;49.4
76046;BME280;64741;41.730;44.788;2023-12-20T07:47:11;1002.6;;;21.8;49.9
76046;BME280;64741;41.730;44.788;2023-12-20T07:52:05;1002.5;;;21.9;50.1
76046;BME280;64741;41.730;44.788;2023-12-20T07:56:41;1002.4;;;22;50.5
76046;BME280;64741;41.730;44.788;2023-12-20T08:02:11;1002.3;;;22.1;50.8
76046;BME280;64741;41.730;44.788;2023-12-20T08:07:05;1002.2;;;22.1;50.5
76046;BME280;64741;41.730;44.788;2023-12-20T08:12:15;1002.1;;;22.2;49.5
76046;BME280;64741;41.730;44.788;2023-12-20T08:17:09;1002;;;22.2;48.7
76046;BME280;64741;41.730;44.788;2023-12-20T08:22:05;1001.9;;;22.2;48
76046;BME280;64741;41.730;44.788;2023-12-20T08:27:13;1001.8;;;22.2;47.5
76046;BME280;64741;41.730;44.788;2023-12-20T08:31:53;1001.7;;;22.2;46.9
76046;BME280;64741;41.730;44.788;2023-12-20T08:37:15;1001.6;;;22.2;46.3
76046;BME280;64741;41.730;44.788;2023-12-20T08:42:09;1001.6;;;22.2;46
76046;BME280;64741;41.730;44.788;2023-12-20T08:47:05;1001.5;;;22.2;45.6
76046;BME280;64741;41.730;44.788;2023-12-20T08:52:11;1001.5;;;22.2;45.3
76046;BME280;64741;41.730;44.788;2023-12-20T08:57:03;1001.4;;;22.2;44.9
76046;BME280;64741;41.730;44.788;2023-12-20T09:02:13;1001.3;;;22.2;44.8
76046;BME280;64741;41.730;44.788;2023-12-20T09:06:59;1001.2;;;22.2;44.7
76046;BME280;64741;41.730;44.788;2023-12-20T09:11:45;1001.1;;;22.2;45.2
76046;BME280;64741;41.730;44.788;2023-12-20T09:17:13;1001;;;22.2;45.6
76046;BME280;64741;41.730;44.788;2023-12-20T09:21:55;1000.9;;;22.2;45.4
76046;BME280;64741;41.730;44.788;2023-12-20T09:27:13;1000.8;;;22.2;45.1
76046;BME280;64741;41.730;44.788;2023-12-20T09:32:09;1000.7;;;22.2;45
76046;BME280;64741;41.730;44.788;2023-12-20T09:37:03;1000.7;;;22.2;44.8
76046;BME280;64741;41.730;44.788;2023-12-20T09:42:16;1000.6;;;22.1;44.5
76046;BME280;64741;41.730;44.788;2023-12-20T09:47:03;1000.6;;;22.1;44.4
76046;BME280;64741;41.730;44.788;2023-12-20T09:51:57;1000.5;;;22.1;44.4
76046;BME280;64741;41.730;44.788;2023-12-20T09:57:11;1000.4;;;22.1;44.3
76046;BME280;64741;41.730;44.788;2023-12-20T10:02:03;1000.4;;;22.1;44.2
76046;BME280;64741;41.730;44.788;2023-12-20T10:07:13;1000.3;;;22.1;44.2
76046;BME280;64741;41.730;44.788;2023-12-20T10:12:05;1000.2;;;22.1;44.2
76046;BME280;64741;41.730;44.788;2023-12-20T10:17:13;1000.2;;;22.1;44
76046;BME280;64741;41.730;44.788;2023-12-20T10:22:09;1000.1;;;22.1;43.8
76046;BME280;64741;41.730;44.788;2023-12-20T10:27:05;1000.1;;;22.1;43.5
76046;BME280;64741;41.730;44.788;2023-12-20T10:32:21;1000;;;22.1;43.4
76046;BME280;64741;41.730;44.788;2023-12-20T10:37:07;999.9;;;22;43.2
76046;BME280;64741;41.730;44.788;2023-12-20T10:42:15;999.8;;;22;43
76046;BME280;64741;41.730;44.788;2023-12-20T10:46:47;999.8;;;22;42.9
76046;BME280;64741;41.730;44.788;2023-12-20T10:52:05;999.8;;;22;42.8
76046;BME280;64741;41.730;44.788;2023-12-20T10:57:13;999.7;;;22;42.7
76046;BME280;64741;41.730;44.788;2023-12-20T11:01:55;999.7;;;21.9;42.6
76046;BME280;64741;41.730;44.788;2023-12-20T11:07:16;999.6;;;21.9;42.6
76046;BME280;64741;41.730;44.788;2023-12-20T11:12:13;999.5;;;21.9;42.4
76046;BME280;64741;41.730;44.788;2023-12-20T11:16:41;999.5;;;21.9;42.4
76046;BME280;64741;41.730;44.788;2023-12-20T11:21:51;999.4;;;21.9;42.4
76046;BME280;64741;41.730;44.788;2023-12-20T11:27:05;999.4;;;21.9;42.4
76046;BME280;64741;41.730;44.788;2023-12-20T11:32:31;999.4;;;21.9;42.2
76046;BME280;64741;41.730;44.788;2023-12-20T11:37:09;999.4;;;21.9;42.2
76046;BME280;64741;41.730;44.788;2023-12-20T11:41:44;999.4;;;21.9;42.2
76046;BME280;64741;41.730;44.788;2023-12-20T11:46:29;999.3;;;21.8;42.2
76046;BME280;64741;41.730;44.788;2023-12-20T11:51:59;999.3;;;21.8;42.2
76046;BME280;64741;41.730;44.788;2023-12-20T11:57:05;999.3;;;21.9;42.2
76046;BME280;64741;41.730;44.788;2023-12-20T12:01:49;999.3;;;21.9;42.3
76046;BME280;64741;41.730;44.788;2023-12-20T12:07:09;999.3;;;21.9;42.2
76046;BME280;64741;41.730;44.788;2023-12-20T12:12:13;999.3;;;21.9;42.2
76046;BME280;64741;41.730;44.788;2023-12-20T12:17:13;999.3;;;21.9;42.2
76046;BME280;64741;41.730;44.788;2023-12-20T12:22:15;999.3;;;21.9;42
76046;BME280;64741;41.730;44.788;2023-12-20T12:26:50;999.3;;;21.9;42
76046;BME280;64741;41.730;44.788;2023-12-20T12:31:57;999.4;;;21.9;42.2
76046;BME280;64741;41.730;44.788;2023-12-20T12:37:17;999.4;;;21.9;42.5
76046;BME280;64741;41.730;44.788;2023-12-20T12:42:11;999.4;;;21.9;42.8
76046;BME280;64741;41.730;44.788;2023-12-20T12:46:57;999.3;;;21.9;43.3
76046;BME280;64741;41.730;44.788;2023-12-20T12:52:13;999.2;;;21.9;43.7
76046;BME280;64741;41.730;44.788;2023-12-20T12:57:09;999.2;;;21.9;44.1
76046;BME280;64741;41.730;44.788;2023-12-20T13:02:13;999.1;;;21.9;44.5
76046;BME280;64741;41.730;44.788;2023-12-20T13:07:15;999.1;;;21.9;44.9
76046;BME280;64741;41.730;44.788;2023-12-20T13:12:15;999.1;;;21.9;45.1
76046;BME280;64741;41.730;44.788;2023-12-20T13:17:13;999.1;;;21.9;45.3
76046;BME280;64741;41.730;44.788;2023-12-20T13:22:05;999.1;;;21.9;45.5
76046;BME280;64741;41.730;44.788;2023-12-20T13:26:57;999;;;21.9;45.5
76046;BME280;64741;41.730;44.788;2023-12-20T13:32:01;999.1;;;21.9;45.5
76046;BME280;64741;41.730;44.788;2023-12-20T13:37:03;999;;;21.9;45.5
76046;BME280;64741;41.730;44.788;2023-12-20T13:42:09;999;;;21.9;45.8
76046;BME280;64741;41.730;44.788;2023-12-20T13:47:11;999.1;;;21.9;46.3
76046;BME280;64741;41.730;44.788;2023-12-20T13:52:13;999.1;;;21.9;46.5
76046;BME280;64741;41.730;44.788;2023-12-20T13:57:15;999.1;;;21.9;46.5
76046;BME280;64741;41.730;44.788;2023-12-20T14:02:17;999.2;;;21.9;46.4
76046;BME280;64741;41.730;44.788;2023-12-20T14:07:13;999.2;;;21.9;46.2
76046;BME280;64741;41.730;44.788;2023-12-20T14:12:05;999.2;;;21.9;45.6
76046;BME280;64741;41.730;44.788;2023-12-20T14:17:15;999.2;;;21.9;45
76046;BME280;64741;41.730;44.788;2023-12-20T14:22:09;999.2;;;21.9;44.6
76046;BME280;64741;41.730;44.788;2023-12-20T14:27:05;999.2;;;22;44.2
76046;BME280;64741;41.730;44.788;2023-12-20T14:31:25;999.3;;;22;43.8
76046;BME280;64741;41.730;44.788;2023-12-20T14:36:59;999.3;;;22;43.5
76046;BME280;64741;41.730;44.788;2023-12-20T14:42:13;999.2;;;22;43.2
76046;BME280;64741;41.730;44.788;2023-12-20T14:46:59;999.2;;;22;43
76046;BME280;64741;41.730;44.788;2023-12-20T14:52:17;999.2;;;22;42.7
76046;BME280;64741;41.730;44.788;2023-12-20T14:57:15;999.2;;;22;42.6
76046;BME280;64741;41.730;44.788;2023-12-20T15:02:05;999.2;;;22;42.5
76046;BME280;64741;41.730;44.788;2023-12-20T15:07:17;999.2;;;22;42.5
76046;BME280;64741;41.730;44.788;2023-12-20T15:11:43;999.3;;;22;42.6
76046;BME280;64741;41.730;44.788;2023-12-20T15:17:03;999.3;;;22;42.6
76046;BME280;64741;41.730;44.788;2023-12-20T15:22:09;999.3;;;22.1;42.5
76046;BME280;64741;41.730;44.788;2023-12-20T15:27:11;999.3;;;22.1;42.6
76046;BME280;64741;41.730;44.788;2023-12-20T15:32:13;999.3;;;22.1;42.6
76046;BME280;64741;41.730;44.788;2023-12-20T15:37:11;999.3;;;22.1;42.6
76046;BME280;64741;41.730;44.788;2023-12-20T15:42:15;999.3;;;22.1;42.6
76046;BME280;64741;41.730;44.788;2023-12-20T15:46:51;999.3;;;22.1;42.6
76046;BME280;64741;41.730;44.788;2023-12-20T15:52:01;999.3;;;22.1;42.6
76046;BME280;64741;41.730;44.788;2023-12-20T15:57:11;999.3;;;22.1;42.6
76046;BME280;64741;41.730;44.788;2023-12-20T16:02:07;999.3;;;22.1;42.5
76046;BME280;64741;41.730;44.788;2023-12-20T16:06:51;999.3;;;22.1;42.5
76046;BME280;64741;41.730;44.788;2023-12-20T16:12:09;999.3;;;22.1;42.5
76046;BME280;64741;41.730;44.788;2023-12-20T16:17:01;999.3;;;22.1;42.5
76046;BME280;64741;41.730;44.788;2023-12-20T16:22:11;999.3;;;22.1;42.5
76046;BME280;64741;41.730;44.788;2023-12-20T16:27:11;999.3;;;22.1;42.5
76046;BME280;64741;41.730;44.788;2023-12-20T16:32:13;999.4;;;22.1;42.4
76046;BME280;64741;41.730;44.788;2023-12-20T16:37:15;999.4;;;22.1;42.4
76046;BME280;64741;41.730;44.788;2023-12-20T16:41:41;999.4;;;22.1;42.4
76046;BME280;64741;41.730;44.788;2023-12-20T16:46:57;999.5;;;22.1;42.4
76046;BME280;64741;41.730;44.788;2023-12-20T16:51:55;999.5;;;22.1;42.5
76046;BME280;64741;41.730;44.788;2023-12-20T16:57:11;999.5;;;22.1;42.4
76046;BME280;64741;41.730;44.788;2023-12-20T17:01:51;999.5;;;22.1;42.3
76046;BME280;64741;41.730;44.788;2023-12-20T17:07:06;999.4;;;22.1;42.4
76046;BME280;64741;41.730;44.788;2023-12-20T17:11:59;999.5;;;22.1;42.3
76046;BME280;64741;41.730;44.788;2023-12-20T17:17:11;999.4;;;22.1;42.3
76046;BME280;64741;41.730;44.788;2023-12-20T17:21:55;999.4;;;22.1;42.3
76046;BME280;64741;41.730;44.788;2023-12-20T17:27:13;999.4;;;22.1;42.3
76046;BME280;64741;41.730;44.788;2023-12-20T17:32:15;999.4;;;22.1;42.2
76046;BME280;64741;41.730;44.788;2023-12-20T17:37:13;999.4;;;22.1;42.2
76046;BME280;64741;41.730;44.788;2023-12-20T17:42:05;999.4;;;22.1;42.2
76046;BME280;64741;41.730;44.788;2023-12-20T17:47:15;999.4;;;22.1;42.1
76046;BME280;64741;41.730;44.788;2023-12-20T17:52:11;999.4;;;22.1;42.1
76046;BME280;64741;41.730;44.788;2023-12-20T17:57:07;999.4;;;22;42
76046;BME280;64741;41.730;44.788;2023-12-20T18:02:07;999.5;;;22;41.9
76046;BME280;64741;41.730;44.788;2023-12-20T18:07:09;999.5;;;22;41.8
76046;BME280;64741;41.730;44.788;2023-12-20T18:12:13;999.5;;;22;41.8
76046;BME280;64741;41.730;44.788;2023-12-20T18:17:15;999.5;;;21.9;41.7
76046;BME280;64741;41.730;44.788;2023-12-20T18:22:17;999.5;;;21.9;41.6
76046;BME280;64741;41.730;44.788;2023-12-20T18:27:15;999.5;;;21.9;41.6
76046;BME280;64741;41.730;44.788;2023-12-20T18:32:01;999.4;;;21.9;41.7
76046;BME280;64741;41.730;44.788;2023-12-20T18:37:15;999.4;;;21.9;41.6
76046;BME280;64741;41.730;44.788;2023-12-20T18:42:11;999.4;;;21.9;41.6
76046;BME280;64741;41.730;44.788;2023-12-20T18:47:05;999.4;;;21.8;41.6
76046;BME280;64741;41.730;44.788;2023-12-20T18:52:09;999.4;;;21.8;41.6
76046;BME280;64741;41.730;44.788;2023-12-20T18:56:57;999.4;;;21.8;41.5
76046;BME280;64741;41.730;44.788;2023-12-20T19:02:15;999.4;;;21.8;41.5
76046;BME280;64741;41.730;44.788;2023-12-20T19:07:13;999.5;;;21.8;41.5
76046;BME280;64741;41.730;44.788;2023-12-20T19:12:13;999.5;;;21.8;41.4
76046;BME280;64741;41.730;44.788;2023-12-20T19:17:13;999.5;;;21.8;41.5
76046;BME280;64741;41.730;44.788;2023-12-20T19:22:01;999.5;;;21.7;41.4
76046;BME280;64741;41.730;44.788;2023-12-20T19:27:17;999.5;;;21.7;41.4
76046;BME280;64741;41.730;44.788;2023-12-20T19:31:49;999.5;;;21.7;41.3
76046;BME280;64741;41.730;44.788;2023-12-20T19:37:07;999.5;;;21.7;41.4
76046;BME280;64741;41.730;44.788;2023-12-20T19:42:01;999.5;;;21.7;41.4
76046;BME280;64741;41.730;44.788;2023-12-20T19:46:45;999.5;;;21.7;41.4
76046;BME280;64741;41.730;44.788;2023-12-20T19:52:13;999.5;;;21.7;41.4
76046;BME280;64741;41.730;44.788;2023-12-20T19:57:13;999.4;;;21.6;41.4
76046;BME280;64741;41.730;44.788;2023-12-20T20:02:17;999.5;;;21.6;41.4
76046;BME280;64741;41.730;44.788;2023-12-20T20:07:15;999.4;;;21.6;41.4
76046;BME280;64741;41.730;44.788;2023-12-20T20:12:05;999.4;;;21.6;41.5
76046;BME280;64741;41.730;44.788;2023-12-20T20:17:15;999.4;;;21.6;41.7
76046;BME280;64741;41.730;44.788;2023-12-20T20:22:11;999.4;;;21.6;41.7
76046;BME280;64741;41.730;44.788;2023-12-20T20:27:05;999.4;;;21.6;41.7
76046;BME280;64741;41.730;44.788;2023-12-20T20:32:11;999.4;;;21.7;41.8
76046;BME280;64741;41.730;44.788;2023-12-20T20:37:09;999.4;;;21.7;41.8
76046;BME280;64741;41.730;44.788;2023-12-20T20:42:13;999.3;;;21.7;41.8
76046;BME280;64741;41.730;44.788;2023-12-20T20:47:13;999.3;;;21.7;41.8
76046;BME280;64741;41.730;44.788;2023-12-20T20:52:07;999.3;;;21.7;41.8
76046;BME280;64741;41.730;44.788;2023-12-20T20:57:15;999.3;;;21.7;41.9
76046;BME280;64741;41.730;44.788;2023-12-20T21:02:00;999.3;;;21.7;41.8
76046;BME280;64741;41.730;44.788;2023-12-20T21:07:15;999.3;;;21.7;41.8
76046;BME280;64741;41.730;44.788;2023-12-20T21:12:15;999.3;;;21.7;41.8
76046;BME280;64741;41.730;44.788;2023-12-20T21:17:01;999.2;;;21.6;41.8
76046;BME280;64741;41.730;44.788;2023-12-20T21:22:17;999.2;;;21.7;41.8
76046;BME280;64741;41.730;44.788;2023-12-20T21:27:11;999.1;;;21.6;41.7
76046;BME280;64741;41.730;44.788;2023-12-20T21:32:15;999.1;;;21.6;41.7
76046;BME280;64741;41.730;44.788;2023-12-20T21:37:13;999;;;21.6;41.7
76046;BME280;64741;41.730;44.788;2023-12-20T21:42:05;999.1;;;21.6;41.6
76046;BME280;64741;41.730;44.788;2023-12-20T21:47:15;999;;;21.6;41.6
76046;BME280;64741;41.730;44.788;2023-12-20T21:52:09;999;;;21.6;41.6
76046;BME280;64741;41.730;44.788;2023-12-20T21:57:13;999;;;21.6;41.6
76046;BME280;64741;41.730;44.788;2023-12-20T22:01:57;999;;;21.6;41.5
76046;BME280;64741;41.730;44.788;2023-12-20T22:07:03;999;;;21.6;41.5
76046;BME280;64741;41.730;44.788;2023-12-20T22:11:59;999;;;21.6;41.4
76046;BME280;64741;41.730;44.788;2023-12-20T22:17:09;999;;;21.6;41.4
76046;BME280;64741;41.730;44.788;2023-12-20T22:21:59;999;;;21.6;41.4
76046;BME280;64741;41.730;44.788;2023-12-20T22:27:13;999;;;21.6;41.2
76046;BME280;64741;41.730;44.788;2023-12-20T22:32:07;998.9;;;21.6;41.2
76046;BME280;64741;41.730;44.788;2023-12-20T22:37:15;998.9;;;21.6;41.3
76046;BME280;64741;41.730;44.788;2023-12-20T22:41:59;998.9;;;21.6;41.2
76046;BME280;64741;41.730;44.788;2023-12-20T22:47:15;998.9;;;21.6;41.1
76046;BME280;64741;41.730;44.788;2023-12-20T22:51:47;998.9;;;21.6;41.1
76046;BME280;64741;41.730;44.788;2023-12-20T22:57:01;998.8;;;21.6;41.1
76046;BME280;64741;41.730;44.788;2023-12-20T23:02:15;998.9;;;21.6;41.1
76046;BME280;64741;41.730;44.788;2023-12-20T23:07:09;998.9;;;21.6;40.9
76046;BME280;64741;41.730;44.788;2023-12-20T23:12:17;998.9;;;21.6;40.8
76046;BME280;64741;41.730;44.788;2023-12-20T23:17:15;998.8;;;21.6;40.8
76046;BME280;64741;41.730;44.788;2023-12-20T23:22:07;998.8;;;21.5;40.7
76046;BME280;64741;41.730;44.788;2023-12-20T23:27:17;998.7;;;21.5;41.4
76046;BME280;64741;41.730;44.788;2023-12-20T23:31:25;998.7;;;21.5;41.2
76046;BME280;64741;41.730;44.788;2023-12-20T23:37:13;998.7;;;21.5;40.9
76046;BME280;64741;41.730;44.788;2023-12-20T23:42:13;998.6;;;21.5;41
76046;BME280;64741;41.730;44.788;2023-12-20T23:47:05;998.6;;;21.5;41.1
76046;BME280;64741;41.730;44.788;2023-12-20T23:52:13;998.6;;;21.5;41
76046;BME280;64741;41.730;44.788;2023-12-20T23:57:11;998.5;;;21.5;40.9
